Time;durP1;ratioP1;P1;durP2;ratioP2;P2;SDS_P1;SDS_P2;PMS_P1;PMS_P2;Temp;Humidity;BMP_temperature;BMP_pressure;BME280_temperature;BME280_humidity;BME280_pressure;Samples;Min_cycle;Max_cycle;Signal;HPM_P1;HPM_P2
2024/01/19 00:00:36;;;;;;;9.13;8.23;;;23.40;60.80;;;;;;6204729;28;89048;-61
2024/01/19 00:03:38;;;;;;;10.20;9.10;;;23.30;61.20;;;;;;6204853;28;87038;-61
2024/01/19 00:06:40;;;;;;;9.38;8.40;;;23.30;61.40;;;;;;6206101;28;89581;-61
2024/01/19 00:09:42;;;;;;;8.63;7.82;;;23.30;61.60;;;;;;6207411;28;88990;-61
2024/01/19 00:12:44;;;;;;;9.05;8.25;;;23.30;61.60;;;;;;6199856;28;90020;-61
2024/01/19 00:15:47;;;;;;;8.57;7.78;;;23.30;61.80;;;;;;6213234;28;89054;-61
2024/01/19 00:18:49;;;;;;;9.70;8.75;;;23.30;61.80;;;;;;6213000;28;88880;-61
2024/01/19 00:21:51;;;;;;;9.10;8.20;;;23.30;61.80;;;;;;6212685;28;88295;-61
2024/01/19 00:24:53;;;;;;;12.73;9.38;;;23.30;61.80;;;;;;6202850;28;89016;-61
2024/01/19 00:27:55;;;;;;;9.02;8.20;;;23.20;61.80;;;;;;6209682;28;89229;-61
2024/01/19 00:30:58;;;;;;;8.48;7.68;;;23.20;61.80;;;;;;6209272;28;89028;-61
2024/01/19 00:34:00;;;;;;;8.70;7.90;;;23.20;61.90;;;;;;6208689;28;88245;-61
2024/01/19 00:37:02;;;;;;;9.00;8.20;;;23.10;61.90;;;;;;6208329;28;89069;-61
2024/01/19 00:40:11;;;;;;;8.65;7.85;;;23.20;62.00;;;;;;6207893;28;89649;-61
2024/01/19 00:43:13;;;;;;;7.80;7.10;;;23.10;62.00;;;;;;6208783;28;90299;-61
2024/01/19 00:46:17;;;;;;;8.25;7.45;;;23.10;62.00;;;;;;6209830;28;89078;-61
2024/01/19 00:49:19;;;;;;;8.52;7.72;;;23.10;62.00;;;;;;6208719;28;89119;-61
2024/01/19 00:52:20;;;;;;;8.43;7.63;;;23.10;62.00;;;;;;6220661;28;89951;-61
2024/01/19 00:55:22;;;;;;;8.13;7.32;;;23.10;62.00;;;;;;6210190;28;89074;-61
2024/01/19 00:58:24;;;;;;;7.40;6.70;;;23.10;62.20;;;;;;6200397;28;89436;-61
2024/01/19 01:01:28;;;;;;;8.50;7.70;;;23.10;62.00;;;;;;6207455;28;89438;-61
2024/01/19 01:04:30;;;;;;;7.97;7.18;;;23.10;62.10;;;;;;6208310;28;88428;-61
2024/01/19 01:07:32;;;;;;;7.80;7.05;;;23.10;62.10;;;;;;6207239;28;87954;-62
2024/01/19 01:10:34;;;;;;;8.43;7.63;;;23.00;62.10;;;;;;6211872;28;89177;-61
2024/01/19 01:13:36;;;;;;;7.93;7.13;;;23.00;62.10;;;;;;6225446;28;90095;-61
2024/01/19 01:16:40;;;;;;;9.10;7.63;;;23.00;62.10;;;;;;6200369;28;89674;-61
2024/01/19 01:19:41;;;;;;;7.93;7.13;;;23.00;62.20;;;;;;6206340;28;89393;-61
2024/01/19 01:22:43;;;;;;;7.90;7.10;;;23.00;62.20;;;;;;6198852;28;89107;-61
2024/01/19 01:25:46;;;;;;;8.20;7.45;;;23.00;62.20;;;;;;6197888;28;89036;-61
2024/01/19 01:28:48;;;;;;;7.68;6.97;;;23.00;62.20;;;;;;6206952;28;89143;-61
2024/01/19 01:31:51;;;;;;;7.90;7.20;;;23.00;62.20;;;;;;6206140;28;89122;-61
2024/01/19 01:34:53;;;;;;;7.47;6.78;;;22.90;63.00;;;;;;6207814;28;88587;-61
2024/01/19 01:37:55;;;;;;;8.15;7.35;;;22.90;62.20;;;;;;6213944;28;89337;-61
2024/01/19 01:40:57;;;;;;;8.45;7.47;;;22.90;62.50;;;;;;6215678;28;89439;-61
2024/01/19 01:43:59;;;;;;;7.95;7.10;;;22.90;62.20;;;;;;6206649;28;89996;-61
2024/01/19 01:47:02;;;;;;;8.40;7.55;;;22.90;62.30;;;;;;6212363;28;89097;-61
2024/01/19 01:50:05;;;;;;;7.82;7.03;;;22.90;62.20;;;;;;6203645;28;89244;-61
2024/01/19 01:53:07;;;;;;;8.30;7.50;;;22.90;62.20;;;;;;6206291;28;87882;-61
2024/01/19 01:56:10;;;;;;;8.07;7.30;;;22.90;61.90;;;;;;6205295;28;89196;-61
2024/01/19 01:59:12;;;;;;;7.68;6.97;;;22.90;60.40;;;;;;6204234;28;89133;-61
2024/01/19 02:02:15;;;;;;;7.38;6.68;;;22.90;59.60;;;;;;6193987;28;88987;-61
2024/01/19 02:05:17;;;;;;;7.63;6.75;;;22.90;59.10;;;;;;6213201;28;88867;-61
2024/01/19 02:08:19;;;;;;;7.07;6.38;;;22.80;59.00;;;;;;6204243;28;89412;-61
2024/01/19 02:11:21;;;;;;;7.90;7.10;;;22.90;59.30;;;;;;6205488;28;89002;-61
2024/01/19 02:14:23;;;;;;;7.07;6.38;;;22.90;59.60;;;;;;6195006;28;90040;-61
2024/01/19 02:17:26;;;;;;;7.68;6.97;;;22.80;59.90;;;;;;6199172;28;89310;-61
2024/01/19 02:20:28;;;;;;;7.40;6.65;;;22.80;60.00;;;;;;6198088;28;88884;-61
2024/01/19 02:23:36;;;;;;;8.45;7.32;;;22.80;60.20;;;;;;6197510;28;87942;-61
2024/01/19 02:26:39;;;;;;;10.07;7.43;;;22.80;60.40;;;;;;6200304;28;89082;-61
2024/01/19 02:29:49;;;;;;;8.00;7.20;;;22.70;60.50;;;;;;6209188;28;88041;-61
2024/01/19 02:32:52;;;;;;;8.25;7.18;;;22.70;60.60;;;;;;6196688;28;87913;-61
2024/01/19 02:35:54;;;;;;;7.18;6.47;;;22.70;61.70;;;;;;6207375;28;88299;-61
2024/01/19 02:38:56;;;;;;;7.03;6.43;;;22.70;61.00;;;;;;6210650;28;89100;-61
2024/01/19 02:41:59;;;;;;;8.45;7.00;;;22.60;61.00;;;;;;6204974;28;89130;-61
2024/01/19 02:45:01;;;;;;;7.10;6.40;;;22.60;61.00;;;;;;6182789;28;89946;-61
2024/01/19 02:48:04;;;;;;;7.32;6.63;;;22.60;61.10;;;;;;6203995;28;88042;-61
2024/01/19 02:51:06;;;;;;;7.63;6.82;;;22.60;61.10;;;;;;6206163;28;87928;-61
2024/01/19 02:54:08;;;;;;;7.40;6.70;;;22.60;61.20;;;;;;6196374;28;89265;-61
2024/01/19 02:57:11;;;;;;;9.20;7.07;;;22.60;61.20;;;;;;6200659;28;89070;-61
2024/01/19 03:00:14;;;;;;;6.88;6.18;;;22.60;61.30;;;;;;6205910;28;89106;-61
2024/01/19 03:03:16;;;;;;;7.95;6.72;;;22.60;61.40;;;;;;6214064;28;89124;-61
2024/01/19 03:06:18;;;;;;;7.18;6.47;;;22.60;61.40;;;;;;6203035;28;87207;-61
2024/01/19 03:09:20;;;;;;;7.28;6.38;;;22.60;61.40;;;;;;6204618;28;89288;-61
2024/01/19 03:12:23;;;;;;;7.20;6.50;;;22.60;61.40;;;;;;6204226;28;89536;-62
2024/01/19 03:15:25;;;;;;;6.80;6.18;;;22.60;61.50;;;;;;6205435;28;90045;-61
2024/01/19 03:18:27;;;;;;;6.60;5.90;;;22.60;61.50;;;;;;6206532;28;89067;-61
2024/01/19 03:21:29;;;;;;;6.72;5.97;;;22.60;61.50;;;;;;6205176;28;89161;-61
2024/01/19 03:24:31;;;;;;;6.80;6.10;;;22.60;61.50;;;;;;6205751;28;89148;-61
2024/01/19 03:27:35;;;;;;;6.60;6.00;;;22.60;61.50;;;;;;6204932;28;89052;-62
2024/01/19 03:30:37;;;;;;;6.63;6.03;;;22.60;61.50;;;;;;6196537;28;89023;-61
2024/01/19 03:33:39;;;;;;;6.80;6.18;;;22.60;61.50;;;;;;6202031;28;89053;-61
2024/01/19 03:36:41;;;;;;;6.72;6.07;;;22.60;61.50;;;;;;6191218;28;88728;-61
2024/01/19 03:39:43;;;;;;;6.93;6.22;;;22.60;61.50;;;;;;6204766;28;88263;-61
2024/01/19 03:42:46;;;;;;;7.03;6.32;;;22.50;61.50;;;;;;6207880;28;89205;-61
2024/01/19 03:45:48;;;;;;;6.18;5.57;;;22.60;61.50;;;;;;6208283;28;90102;-61
2024/01/19 03:48:50;;;;;;;8.00;6.57;;;22.50;61.50;;;;;;6209603;28;87956;-61
2024/01/19 03:51:59;;;;;;;6.57;5.88;;;22.50;61.50;;;;;;6213322;28;89488;-61
2024/01/19 03:55:01;;;;;;;7.15;6.45;;;22.50;61.60;;;;;;6210984;28;89180;-61
2024/01/19 03:58:05;;;;;;;7.55;6.85;;;22.50;61.60;;;;;;6208758;28;89113;-61
2024/01/19 04:01:09;;;;;;;7.32;6.63;;;22.50;61.60;;;;;;6201690;28;89052;-61
2024/01/19 04:04:11;;;;;;;7.28;6.57;;;22.50;61.70;;;;;;6202762;28;89086;-61
2024/01/19 04:07:13;;;;;;;7.20;6.50;;;22.40;61.60;;;;;;6210334;28;87980;-62
2024/01/19 04:10:15;;;;;;;11.30;7.80;;;22.50;61.80;;;;;;6215988;28;88244;-61
2024/01/19 04:13:18;;;;;;;7.72;6.95;;;22.50;61.80;;;;;;6207185;28;89300;-61
2024/01/19 04:16:20;;;;;;;7.85;6.97;;;22.40;61.70;;;;;;6206890;28;90404;-61
2024/01/19 04:19:22;;;;;;;7.13;6.43;;;22.40;61.70;;;;;;6209284;28;89058;-61
2024/01/19 04:22:25;;;;;;;9.23;7.40;;;22.40;61.70;;;;;;6206272;28;89154;-61
2024/01/19 04:25:27;;;;;;;7.22;6.53;;;22.40;61.80;;;;;;6197902;28;89117;-61
2024/01/19 04:28:31;;;;;;;7.18;6.47;;;22.40;61.60;;;;;;6196044;28;89071;-61
2024/01/19 04:31:33;;;;;;;7.18;6.47;;;22.40;61.70;;;;;;6208611;28;89075;-61
2024/01/19 04:34:35;;;;;;;7.30;6.60;;;22.40;61.70;;;;;;6193566;28;89182;-61
2024/01/19 04:37:37;;;;;;;7.20;6.50;;;22.40;61.70;;;;;;6190946;28;88741;-61
2024/01/19 04:40:38;;;;;;;9.48;7.40;;;22.40;61.70;;;;;;6198128;28;88992;-61
2024/01/19 04:43:42;;;;;;;7.50;6.75;;;22.40;61.80;;;;;;6196977;28;89017;-61
2024/01/19 04:46:44;;;;;;;7.88;7.00;;;22.40;61.60;;;;;;6176325;28;91822;-61
2024/01/19 04:49:46;;;;;;;8.00;7.20;;;22.50;61.60;;;;;;6206865;28;88963;-61
2024/01/19 04:52:48;;;;;;;7.03;6.32;;;22.50;61.50;;;;;;6207815;28;89531;-61
2024/01/19 04:55:50;;;;;;;7.03;6.32;;;22.50;61.40;;;;;;6203238;28;88311;-61
2024/01/19 04:58:53;;;;;;;8.77;7.35;;;22.60;61.20;;;;;;6217905;28;88939;-61
2024/01/19 05:01:57;;;;;;;7.32;6.18;;;22.60;61.10;;;;;;6204076;28;89426;-61
2024/01/19 05:04:59;;;;;;;7.40;6.70;;;22.60;61.10;;;;;;6197276;28;89074;-61
2024/01/19 05:08:01;;;;;;;6.85;6.15;;;22.60;61.10;;;;;;6191238;28;87248;-61
2024/01/19 05:11:03;;;;;;;7.53;6.65;;;22.60;61.00;;;;;;6195347;28;89110;-61
2024/01/19 05:14:06;;;;;;;7.85;6.85;;;22.60;61.00;;;;;;6207665;28;87973;-61
2024/01/19 05:17:08;;;;;;;7.32;6.63;;;22.60;61.00;;;;;;6199190;28;89952;-61
2024/01/19 05:20:12;;;;;;;6.90;6.22;;;22.70;61.00;;;;;;6198498;28;89216;-62
2024/01/19 05:23:14;;;;;;;7.20;6.50;;;22.60;61.00;;;;;;6203211;28;89049;-61
2024/01/19 05:26:16;;;;;;;6.68;6.07;;;22.60;61.00;;;;;;6206272;28;89137;-61
2024/01/19 05:29:19;;;;;;;7.20;6.50;;;22.60;61.00;;;;;;6189267;28;89075;-61
2024/01/19 05:32:21;;;;;;;7.32;6.10;;;22.60;61.00;;;;;;6207807;28;89028;-61
2024/01/19 05:35:23;;;;;;;8.45;6.60;;;22.60;60.90;;;;;;6206959;28;89021;-61
2024/01/19 05:38:25;;;;;;;6.50;5.72;;;22.70;60.90;;;;;;6208153;28;87246;-61
2024/01/19 05:41:27;;;;;;;6.88;6.10;;;22.70;60.80;;;;;;6207961;28;87968;-61
2024/01/19 05:44:30;;;;;;;7.38;6.32;;;22.70;60.80;;;;;;6207479;28;89420;-61
2024/01/19 05:47:32;;;;;;;6.50;5.88;;;22.70;60.70;;;;;;6183583;28;90182;-61
2024/01/19 05:50:34;;;;;;;6.43;5.82;;;22.80;60.70;;;;;;6179417;28;89236;-61
2024/01/19 05:53:36;;;;;;;7.03;6.10;;;22.80;60.60;;;;;;6189949;28;89106;-61
2024/01/19 05:56:38;;;;;;;6.18;5.57;;;22.80;60.60;;;;;;6180770;28;89403;-60
2024/01/19 05:59:42;;;;;;;6.82;5.57;;;22.80;60.50;;;;;;6205681;28;89094;-61
2024/01/19 06:02:44;;;;;;;6.68;5.93;;;22.80;60.70;;;;;;6204630;28;89361;-61
2024/01/19 06:05:46;;;;;;;6.10;5.50;;;22.90;61.00;;;;;;6203104;28;88972;-61
2024/01/19 06:08:48;;;;;;;9.35;6.85;;;22.90;61.00;;;;;;6201758;28;88135;-61
2024/01/19 06:11:50;;;;;;;7.25;5.80;;;22.90;61.00;;;;;;6200931;28;89466;-60
2024/01/19 06:14:53;;;;;;;6.25;5.63;;;23.00;61.10;;;;;;6196526;28;88060;-62
2024/01/19 06:17:55;;;;;;;7.40;5.88;;;23.00;61.10;;;;;;6196996;28;90217;-61
2024/01/19 06:21:00;;;;;;;6.20;5.60;;;23.00;61.10;;;;;;6194039;28;89152;-62
2024/01/19 06:24:02;;;;;;;6.38;5.30;;;23.00;61.00;;;;;;6183936;28;89633;-62
2024/01/19 06:27:04;;;;;;;5.78;5.15;;;23.00;60.80;;;;;;6191008;28;89020;-62
2024/01/19 06:30:09;;;;;;;6.07;5.30;;;23.00;60.80;;;;;;6198791;28;89216;-62
2024/01/19 06:33:11;;;;;;;6.00;5.40;;;23.00;60.80;;;;;;6201949;28;89120;-62
2024/01/19 06:36:13;;;;;;;7.60;5.63;;;23.10;60.80;;;;;;6198706;28;89375;-62
2024/01/19 06:39:15;;;;;;;5.72;5.13;;;23.10;60.70;;;;;;6192561;28;88454;-62
2024/01/19 06:42:17;;;;;;;8.63;6.00;;;23.10;60.70;;;;;;6194881;28;89007;-62
2024/01/19 06:45:21;;;;;;;5.95;5.35;;;23.10;60.70;;;;;;6191582;28;88950;-62
2024/01/19 06:48:23;;;;;;;5.63;4.80;;;23.10;60.60;;;;;;6188418;28;88974;-62
2024/01/19 06:51:28;;;;;;;5.85;5.00;;;23.10;60.60;;;;;;6199178;28;88398;-62
2024/01/19 06:54:30;;;;;;;5.20;4.70;;;23.10;60.60;;;;;;6202559;28;89376;-62
2024/01/19 06:57:32;;;;;;;5.85;4.85;;;23.10;60.60;;;;;;6197260;28;89264;-62
2024/01/19 07:00:35;;;;;;;5.18;4.68;;;23.10;60.60;;;;;;6201026;28;89009;-62
2024/01/19 07:03:37;;;;;;;5.40;4.90;;;23.10;60.60;;;;;;6198189;28;89179;-62
2024/01/19 07:06:39;;;;;;;5.63;5.03;;;23.10;60.60;;;;;;6200530;28;89392;-62
2024/01/19 07:09:41;;;;;;;5.85;4.70;;;23.10;60.60;;;;;;6201065;28;88711;-62
2024/01/19 07:12:43;;;;;;;6.03;4.78;;;23.10;60.60;;;;;;6200278;28;89087;-62
2024/01/19 07:15:47;;;;;;;4.80;4.40;;;23.10;60.60;;;;;;6197308;28;87940;-62
2024/01/19 07:18:49;;;;;;;4.80;4.30;;;23.10;60.60;;;;;;6195034;28;89927;-61
2024/01/19 07:21:51;;;;;;;5.30;4.80;;;23.20;60.60;;;;;;6205134;28;89023;-62
2024/01/19 07:24:53;;;;;;;5.07;4.57;;;23.20;60.60;;;;;;6205943;28;89036;-62
2024/01/19 07:27:55;;;;;;;4.82;4.28;;;23.20;60.60;;;;;;6202488;28;89165;-62
2024/01/19 07:30:58;;;;;;;4.65;4.20;;;23.20;60.60;;;;;;6196275;28;90095;-62
2024/01/19 07:34:00;;;;;;;5.30;4.40;;;23.20;61.50;;;;;;6205203;28;89364;-62
2024/01/19 07:37:02;;;;;;;8.05;4.80;;;23.20;60.50;;;;;;6202219;28;89216;-61
2024/01/19 07:40:05;;;;;;;4.68;4.22;;;23.20;60.50;;;;;;6202699;28;87234;-62
2024/01/19 07:43:07;;;;;;;4.60;4.00;;;23.30;60.60;;;;;;6201666;28;89541;-62
2024/01/19 07:46:11;;;;;;;5.63;4.70;;;23.30;60.60;;;;;;6202297;28;89419;-62
2024/01/19 07:49:13;;;;;;;5.88;4.45;;;23.30;60.60;;;;;;6203505;28;89944;-62
2024/01/19 07:52:15;;;;;;;5.07;4.30;;;23.30;60.60;;;;;;6199244;28;89150;-62
2024/01/19 07:55:16;;;;;;;5.82;4.50;;;23.30;60.60;;;;;;6182538;28;89386;-62
2024/01/19 07:58:19;;;;;;;4.88;4.28;;;23.30;60.60;;;;;;6204261;28;89125;-62
2024/01/19 08:01:22;;;;;;;5.25;4.40;;;23.30;60.60;;;;;;6184700;28;89303;-62
2024/01/19 08:04:24;;;;;;;5.28;4.13;;;23.30;60.70;;;;;;6197286;28;88993;-62
2024/01/19 08:07:26;;;;;;;6.75;4.20;;;23.30;60.70;;;;;;6200092;28;89174;-62
2024/01/19 08:10:31;;;;;;;7.18;4.38;;;23.30;60.60;;;;;;6204356;28;88828;-62
2024/01/19 08:13:33;;;;;;;4.65;4.15;;;23.30;60.60;;;;;;6190086;28;89372;-62
2024/01/19 08:16:36;;;;;;;5.22;4.10;;;23.30;60.60;;;;;;6204297;28;88999;-62
2024/01/19 08:19:38;;;;;;;6.03;3.90;;;23.30;60.60;;;;;;6195714;28;90258;-62
2024/01/19 08:22:40;;;;;;;6.20;4.38;;;23.30;60.60;;;;;;6202808;28;89076;-62
2024/01/19 08:25:42;;;;;;;4.00;3.58;;;23.30;60.60;;;;;;6196969;28;89387;-62
2024/01/19 08:28:46;;;;;;;5.60;3.97;;;23.30;60.50;;;;;;6188800;28;89160;-62
2024/01/19 08:31:53;;;;;;;5.45;4.30;;;23.30;60.50;;;;;;6197839;28;89088;-61
2024/01/19 08:34:55;;;;;;;4.13;3.60;;;23.40;60.60;;;;;;6194741;28;88765;-62
2024/01/19 08:37:58;;;;;;;4.35;3.92;;;23.40;60.50;;;;;;6197552;28;89000;-62
2024/01/19 08:41:00;;;;;;;4.68;4.03;;;23.40;60.50;;;;;;6199297;28;88599;-62
2024/01/19 08:44:02;;;;;;;5.53;4.07;;;23.40;60.50;;;;;;6200479;28;89121;-62
2024/01/19 08:47:05;;;;;;;4.85;3.83;;;23.30;60.50;;;;;;6183224;28;89176;-62
2024/01/19 08:50:08;;;;;;;4.43;3.53;;;23.40;60.60;;;;;;6204605;28;88964;-62
2024/01/19 08:53:10;;;;;;;4.53;3.65;;;23.30;60.50;;;;;;6203276;28;89427;-62
2024/01/19 08:56:12;;;;;;;5.22;4.03;;;23.40;60.50;;;;;;6202379;28;89182;-62
2024/01/19 08:59:14;;;;;;;5.05;3.78;;;23.40;60.50;;;;;;6196849;28;89111;-62
2024/01/19 09:02:17;;;;;;;4.57;3.90;;;23.40;60.50;;;;;;6196453;28;89317;-61
2024/01/19 09:05:20;;;;;;;4.03;3.40;;;23.40;60.40;;;;;;6176789;28;88969;-62
2024/01/19 09:08:22;;;;;;;3.75;3.22;;;23.40;60.40;;;;;;6184215;28;89051;-63
2024/01/19 09:11:24;;;;;;;4.05;3.50;;;23.40;60.30;;;;;;6201144;28;88290;-62
2024/01/19 09:14:26;;;;;;;6.22;4.30;;;23.40;60.30;;;;;;6206921;28;89025;-62
2024/01/19 09:17:30;;;;;;;5.00;4.00;;;23.40;60.40;;;;;;6207042;28;89140;-62
2024/01/19 09:20:32;;;;;;;4.22;3.25;;;23.40;60.40;;;;;;6199901;28;90022;-62
2024/01/19 09:23:34;;;;;;;4.25;3.80;;;23.40;60.30;;;;;;6207247;28;89053;-62
2024/01/19 09:26:36;;;;;;;4.15;3.63;;;23.40;60.40;;;;;;6201160;28;89049;-62
2024/01/19 09:29:38;;;;;;;3.90;3.50;;;23.40;60.30;;;;;;6193935;28;89051;-62
2024/01/19 09:32:41;;;;;;;6.40;3.97;;;23.40;60.30;;;;;;6204918;28;89080;-62
2024/01/19 09:35:43;;;;;;;6.05;3.90;;;23.40;60.30;;;;;;6197360;28;87973;-62
2024/01/19 09:38:45;;;;;;;3.33;3.03;;;23.40;60.30;;;;;;6195996;28;89063;-62
2024/01/19 09:41:50;;;;;;;3.53;3.20;;;23.40;60.30;;;;;;6205037;28;87489;-62
2024/01/19 09:45:01;;;;;;;4.30;3.45;;;23.40;60.30;;;;;;6202102;28;89334;-62
2024/01/19 09:48:16;;;;;;;3.90;3.30;;;23.40;60.30;;;;;;6206569;28;89092;-62
2024/01/19 09:51:19;;;;;;;3.67;3.35;;;23.40;60.30;;;;;;6209709;28;90026;-62
2024/01/19 09:54:29;;;;;;;3.50;3.00;;;23.40;60.30;;;;;;6199081;28;89148;-62
2024/01/19 09:57:33;;;;;;;4.25;3.28;;;23.40;60.20;;;;;;6203222;28;89080;-62
2024/01/19 10:00:35;;;;;;;3.63;3.05;;;23.40;60.30;;;;;;6200840;28;89058;-62
2024/01/19 10:03:38;;;;;;;3.38;3.08;;;23.40;60.20;;;;;;6200051;28;89388;-62
2024/01/19 10:06:43;;;;;;;4.97;3.50;;;23.40;60.20;;;;;;6194587;28;89081;-62
2024/01/19 10:09:46;;;;;;;4.57;3.47;;;23.40;60.20;;;;;;6197670;28;88250;-62
2024/01/19 10:12:48;;;;;;;5.53;3.78;;;23.40;60.20;;;;;;6206394;28;89068;-62
2024/01/19 10:15:50;;;;;;;3.80;3.20;;;23.40;60.20;;;;;;6207744;28;87940;-62
2024/01/19 10:18:54;;;;;;;3.40;2.90;;;23.40;60.20;;;;;;6206046;28;87884;-62
2024/01/19 10:21:56;;;;;;;3.55;3.03;;;23.40;60.20;;;;;;6218399;28;90393;-62
2024/01/19 10:25:02;;;;;;;3.38;2.97;;;23.50;60.30;;;;;;6204919;28;89119;-62
2024/01/19 10:28:05;;;;;;;3.25;2.80;;;23.50;60.30;;;;;;6205819;28;88306;-62
2024/01/19 10:31:17;;;;;;;4.18;3.17;;;23.40;60.20;;;;;;6206172;28;89022;-62
2024/01/19 10:34:22;;;;;;;4.38;3.28;;;23.50;60.30;;;;;;6205498;28;89021;-62
2024/01/19 10:37:24;;;;;;;4.90;3.13;;;23.40;60.10;;;;;;6192819;28;89083;-62
2024/01/19 10:40:26;;;;;;;3.83;3.10;;;23.40;60.20;;;;;;6206097;28;89259;-62
2024/01/19 10:43:28;;;;;;;3.25;2.78;;;23.50;60.30;;;;;;6205071;28;88334;-62
2024/01/19 10:46:30;;;;;;;4.45;2.95;;;23.50;60.30;;;;;;6204838;28;89124;-62
2024/01/19 10:49:34;;;;;;;4.18;3.40;;;23.50;60.20;;;;;;6205524;28;89014;-62
2024/01/19 10:52:36;;;;;;;3.50;2.95;;;23.50;60.20;;;;;;6203719;28;90055;-62
2024/01/19 10:55:38;;;;;;;3.35;2.80;;;23.40;60.10;;;;;;6205550;28;87961;-62
2024/01/19 10:58:40;;;;;;;3.67;2.95;;;23.50;60.30;;;;;;6204483;28;88050;-62
2024/01/19 11:01:42;;;;;;;5.07;3.00;;;23.50;60.20;;;;;;6204496;28;89282;-62
2024/01/19 11:04:46;;;;;;;3.88;3.13;;;23.40;60.10;;;;;;6205443;28;89262;-62
2024/01/19 11:07:50;;;;;;;3.90;3.00;;;23.50;60.10;;;;;;6204975;28;89312;-62
2024/01/19 11:10:53;;;;;;;3.38;2.70;;;23.50;60.20;;;;;;6205138;28;87935;-62
2024/01/19 11:13:58;;;;;;;4.10;3.30;;;23.50;60.10;;;;;;6202986;28;88414;-62
2024/01/19 11:17:00;;;;;;;4.28;3.25;;;23.50;60.20;;;;;;6204146;28;89048;-62
2024/01/19 11:20:04;;;;;;;3.42;2.75;;;23.50;60.10;;;;;;6204879;28;89047;-62
2024/01/19 11:23:07;;;;;;;3.00;2.67;;;23.50;60.10;;;;;;6202775;28;89978;-62
2024/01/19 11:26:17;;;;;;;3.20;2.72;;;23.50;60.10;;;;;;6204549;28;89191;-61
2024/01/19 11:29:22;;;;;;;3.08;2.67;;;23.50;60.10;;;;;;6202502;28;89566;-62
2024/01/19 11:32:24;;;;;;;3.38;2.65;;;23.50;60.10;;;;;;6194522;28;89080;-61
2024/01/19 11:35:51;;;;;;;2.60;2.40;;;23.50;60.10;;;;;;6205258;28;89090;-62
2024/01/19 11:38:53;;;;;;;3.10;2.80;;;23.50;60.20;;;;;;6172603;28;89454;-61
2024/01/19 11:41:55;;;;;;;3.83;2.47;;;23.50;60.10;;;;;;6204167;28;87976;-62
2024/01/19 11:44:57;;;;;;;2.78;2.45;;;23.50;60.10;;;;;;6193493;28;87605;-62
2024/01/19 11:47:59;;;;;;;3.10;2.65;;;23.50;60.10;;;;;;6203808;28;89383;-62
2024/01/19 11:51:02;;;;;;;3.28;2.65;;;23.60;60.20;;;;;;6203332;28;89438;-62
2024/01/19 11:54:05;;;;;;;3.92;2.80;;;23.50;60.20;;;;;;6191329;28;89953;-62
2024/01/19 11:57:16;;;;;;;5.15;3.13;;;23.50;60.10;;;;;;6204994;28;89148;-62
2024/01/19 12:00:18;;;;;;;3.00;2.30;;;23.50;60.10;;;;;;6195794;28;89443;-62
2024/01/19 12:03:21;;;;;;;3.53;2.72;;;23.50;60.10;;;;;;6201653;28;89087;-62
2024/01/19 12:06:24;;;;;;;6.85;3.67;;;23.50;60.10;;;;;;6204928;28;89558;-62
2024/01/19 12:09:27;;;;;;;4.43;2.72;;;23.50;60.00;;;;;;6206971;28;89440;-62
2024/01/19 12:12:29;;;;;;;3.53;2.67;;;23.60;60.10;;;;;;6191608;28;90947;-62
2024/01/19 12:15:31;;;;;;;2.72;2.40;;;23.60;60.10;;;;;;6200625;28;88331;-62
2024/01/19 12:18:35;;;;;;;3.22;2.40;;;23.50;60.00;;;;;;6185931;28;89107;-62
2024/01/19 12:21:38;;;;;;;3.15;2.50;;;23.60;60.10;;;;;;6198419;28;89568;-63
2024/01/19 12:24:41;;;;;;;3.65;2.67;;;23.60;60.10;;;;;;6204348;28;90514;-62
2024/01/19 12:27:43;;;;;;;3.60;2.50;;;23.60;60.10;;;;;;6206882;28;89102;-62
2024/01/19 12:30:45;;;;;;;4.63;2.60;;;23.50;60.10;;;;;;6205080;28;90055;-62
2024/01/19 12:33:47;;;;;;;4.47;2.78;;;23.50;60.10;;;;;;6207826;28;89261;-61
2024/01/19 12:36:55;;;;;;;2.88;2.33;;;23.50;60.10;;;;;;6207830;28;88126;-62
2024/01/19 12:40:11;;;;;;;2.78;2.47;;;23.60;60.20;;;;;;6205976;28;89007;-62
2024/01/19 12:43:13;;;;;;;3.85;2.40;;;23.60;60.20;;;;;;6209476;28;89431;-62
2024/01/19 12:46:15;;;;;;;3.03;2.60;;;23.60;60.10;;;;;;6208917;28;88334;-62
2024/01/19 12:49:17;;;;;;;2.53;2.33;;;23.60;60.10;;;;;;6207673;28;88983;-62
2024/01/19 12:52:21;;;;;;;2.83;2.20;;;23.60;60.20;;;;;;6206303;28;89099;-62
2024/01/19 12:55:33;;;;;;;2.85;2.35;;;23.60;60.20;;;;;;6207661;28;90016;-62
2024/01/19 12:58:35;;;;;;;2.65;2.40;;;23.60;60.10;;;;;;6208452;28;88852;-62
2024/01/19 13:01:39;;;;;;;3.80;2.63;;;23.60;60.20;;;;;;6208063;28;88287;-62
2024/01/19 13:04:41;;;;;;;5.95;3.22;;;23.60;60.10;;;;;;6207636;28;89096;-62
2024/01/19 13:07:45;;;;;;;3.83;2.65;;;23.60;60.10;;;;;;6207074;28;89438;-62
2024/01/19 13:10:48;;;;;;;2.58;2.13;;;23.60;60.20;;;;;;6208000;28;90119;-62
2024/01/19 13:14:00;;;;;;;3.00;2.50;;;23.60;60.10;;;;;;6205562;28;89299;-62
2024/01/19 13:17:03;;;;;;;2.88;2.25;;;23.60;60.10;;;;;;6200836;28;88365;-62
2024/01/19 13:20:07;;;;;;;3.70;2.40;;;23.60;60.10;;;;;;6197262;28;89447;-62
2024/01/19 13:23:11;;;;;;;3.15;2.40;;;23.60;60.10;;;;;;6195646;28;88155;-62
2024/01/19 13:26:17;;;;;;;5.18;2.88;;;23.60;60.10;;;;;;6203945;28;90030;-62
2024/01/19 13:29:19;;;;;;;4.90;2.92;;;23.60;60.10;;;;;;6203191;28;87961;-62
2024/01/19 13:32:21;;;;;;;3.38;2.40;;;23.60;60.10;;;;;;6207780;28;89110;-62
2024/01/19 13:35:24;;;;;;;3.33;2.30;;;23.60;60.10;;;;;;6201226;28;90369;-62
2024/01/19 13:38:27;;;;;;;3.15;2.17;;;23.60;60.10;;;;;;6194153;28;89169;-62
2024/01/19 13:41:29;;;;;;;2.40;2.05;;;23.60;60.10;;;;;;6207747;28;89038;-62
2024/01/19 13:44:31;;;;;;;2.38;2.15;;;23.60;60.10;;;;;;6200264;28;89151;-62
2024/01/19 13:47:33;;;;;;;2.97;2.22;;;23.60;60.10;;;;;;6192678;28;88405;-62
2024/01/19 13:50:35;;;;;;;3.70;2.50;;;23.60;60.10;;;;;;6194267;28;88983;-62
2024/01/19 13:53:38;;;;;;;2.85;2.20;;;23.60;60.10;;;;;;6203293;28;89202;-62
2024/01/19 13:56:40;;;;;;;2.05;1.75;;;23.60;60.10;;;;;;6192599;28;91995;-62
2024/01/19 13:59:42;;;;;;;2.95;2.22;;;23.60;60.10;;;;;;6207215;28;89084;-62
2024/01/19 14:02:44;;;;;;;2.95;2.22;;;23.60;60.20;;;;;;6200887;28;90092;-62
2024/01/19 14:05:48;;;;;;;3.10;2.30;;;23.60;60.20;;;;;;6205939;28;89154;-62
2024/01/19 14:08:52;;;;;;;3.55;2.25;;;23.60;60.20;;;;;;6199627;28;89416;-62
2024/01/19 14:11:54;;;;;;;2.92;2.15;;;23.60;60.20;;;;;;6187379;28;89405;-61
2024/01/19 14:14:57;;;;;;;2.40;2.15;;;23.60;60.20;;;;;;6206035;28;89129;-62
2024/01/19 14:17:58;;;;;;;4.18;2.55;;;23.60;60.20;;;;;;6204800;28;88291;-61
2024/01/19 14:21:01;;;;;;;3.47;2.20;;;23.60;60.20;;;;;;6205481;28;89021;-62
2024/01/19 14:24:05;;;;;;;4.25;2.50;;;23.60;60.20;;;;;;6202991;28;89092;-62
2024/01/19 14:27:06;;;;;;;2.70;2.13;;;23.60;60.10;;;;;;6188730;28;90275;-62
2024/01/19 14:30:09;;;;;;;2.15;1.88;;;23.60;60.10;;;;;;6198328;28;89099;-62
2024/01/19 14:33:12;;;;;;;3.08;2.40;;;23.60;60.10;;;;;;6199155;28;89288;-62
2024/01/19 14:36:14;;;;;;;2.85;2.35;;;23.60;60.10;;;;;;6195161;28;89274;-62
2024/01/19 14:39:17;;;;;;;2.38;2.05;;;23.60;60.10;;;;;;6197643;28;89063;-62
2024/01/19 14:42:19;;;;;;;3.95;2.60;;;23.70;60.20;;;;;;6200690;28;87915;-62
2024/01/19 14:45:21;;;;;;;3.50;2.75;;;23.60;60.10;;;;;;6203753;28;89056;-62
2024/01/19 14:48:23;;;;;;;2.53;2.03;;;23.60;60.10;;;;;;6193723;28;88445;-62
2024/01/19 14:51:25;;;;;;;2.83;2.40;;;23.60;60.10;;;;;;6190523;28;89106;-62
2024/01/19 14:54:30;;;;;;;2.58;2.35;;;23.60;60.10;;;;;;6220167;28;89105;-62
2024/01/19 14:57:32;;;;;;;2.60;2.40;;;23.60;60.10;;;;;;6212053;28;89873;-62
2024/01/19 15:00:34;;;;;;;2.47;2.17;;;23.60;60.10;;;;;;6208505;28;88002;-62
2024/01/19 15:03:36;;;;;;;3.40;2.42;;;23.60;60.10;;;;;;6205137;28;89365;-62
2024/01/19 15:06:40;;;;;;;5.32;2.97;;;23.60;60.10;;;;;;6205138;28;89105;-62
2024/01/19 15:09:44;;;;;;;2.83;2.35;;;23.60;60.20;;;;;;6182584;28;89235;-62
2024/01/19 15:12:45;;;;;;;2.33;2.13;;;23.70;60.20;;;;;;6197737;28;88995;-62
2024/01/19 15:15:49;;;;;;;2.92;2.30;;;23.60;60.10;;;;;;6191019;28;89073;-62
2024/01/19 15:18:51;;;;;;;3.22;2.55;;;23.60;60.10;;;;;;6205006;28;88791;-63
2024/01/19 15:21:55;;;;;;;2.40;2.20;;;23.60;60.10;;;;;;6199667;28;89128;-62
2024/01/19 15:24:58;;;;;;;2.70;2.28;;;23.60;60.10;;;;;;6204264;28;89234;-62
2024/01/19 15:28:00;;;;;;;2.55;2.10;;;23.60;60.10;;;;;;6204891;28;90088;-62
2024/01/19 15:31:02;;;;;;;2.95;2.30;;;23.60;60.10;;;;;;6203819;28;88273;-62
2024/01/19 15:34:04;;;;;;;3.38;2.40;;;23.60;60.30;;;;;;6200514;28;89130;-61
2024/01/19 15:37:07;;;;;;;4.47;2.80;;;23.60;60.30;;;;;;6208592;28;89107;-62
2024/01/19 15:40:11;;;;;;;3.38;2.28;;;23.70;60.40;;;;;;6192632;28;89490;-62
2024/01/19 15:43:13;;;;;;;5.03;2.95;;;23.70;60.40;;;;;;6194342;28;89079;-61
2024/01/19 15:46:20;;;;;;;3.05;2.50;;;23.70;60.50;;;;;;6197287;28;89229;-62
2024/01/19 15:49:23;;;;;;;2.78;2.35;;;23.70;60.60;;;;;;6213853;28;88779;-62